Knin, Croatia

1:58 PM CEST on September 20, 2014 (GMT +0200)
Golubic-Knin | Change Station
CLOSE
Current Station
Personal Weather Station
Location: Golubic, CROATIA
Elevation: 1358 ft
Nearby Weather Stations

Elev 1358 ft 44.11 °N, 16.21 °E | Updated 8 seconds ago

Rain
Rain
63.5 °F
Feels Like 63.5 °F
N
2.9
Wind Variable Wind from North
Gusts 2.9 mph

Today
High -- | Low -- °F
--% Chance of Precip.
Yesterday
High -- | Low -- °F
Precip. -- in
6:39 AM 6:56 PM
Waning Crescent, 13% visible
Pressure 30.06 in
Visibility 6.2 miles
Clouds Scattered Clouds 2600 ft
Dew Point 61 °F
Humidity 91%
Rainfall 1.31 in
Snow Depth Not available.
UV 5 out of 12
Pollen Not available.
Air Quality Not available.
Flu Activity Not available.
METAR LDSP 201130Z 08005KT 030V140 9999 SCT026 22/20 Q1018 NOSIG

More Conditions Fewer Conditions

Pressure 30.06 in
Visibility 6.2 miles
Clouds Scattered Clouds 2600 ft
Dew Point 61 °F
Humidity 91%
Rainfall 1.31 in
Snow Depth Not available.
UV 5 out of 12
Pollen Not available.
Air Quality Not available.
Flu Activity Not available.
METAR LDSP 201130Z 08005KT 030V140 9999 SCT026 22/20 Q1018 NOSIG

More Conditions Fewer Conditions

10-Day Weather Forecast

Almanac

Astronomy

Sep. 20, 2014 Rise Set
Actual Time 6:39 AM CEST 6:56 PM CEST
Civil Twilight 6:10 AM CEST 7:25 PM CEST
Nautical Twilight 5:36 AM CEST 7:59 PM CEST
Astronomical Twilight 5:01 AM CEST 8:34 PM CEST
Moon 2:56 AM CEST 4:55 PM CEST
Length of Visible Light 13h 14m
Length of Day
12h 17m
Tomorrow will be 3m 0s shorter.
Waning Crescent, 13% of the Moon is Illuminated
Today
Waning Crescent
Sep 24
New
Oct 1
First Quarter
Oct 8
Full
Oct 15
Last Quarter

Yesterday's Extremes

Country Highs Country Lows

Community

WunderPhotos

Upload Photos

1,754,835 photos uploaded!

Nearby

Snow Depth

Not available.

Earthquake Activity

City Distance Mag. Time & Date
No recent earthquake activity has been reported nearby.
Minimum magnitude displayed is 2.5.

Coastal Water Temperatures

Place Temperature
No Stations Reporting

Nearby Weather Stations